createdAt,value
2022-12-17T00:01:45.286Z,980.65
2022-12-17T00:09:25.009Z,980.74
2022-12-17T00:17:00.778Z,980.79
2022-12-17T00:24:41.440Z,980.73
2022-12-17T00:32:23.988Z,980.73
2022-12-17T00:40:00.458Z,980.81
2022-12-17T00:47:36.820Z,980.8
2022-12-17T00:55:09.886Z,980.93
2022-12-17T01:02:34.853Z,980.99
2022-12-17T01:10:02.205Z,981.06
2022-12-17T01:17:49.384Z,981.16
2022-12-17T01:25:10.313Z,981.26
2022-12-17T01:32:50.907Z,981.34
2022-12-17T01:40:24.985Z,981.44
2022-12-17T01:48:14.323Z,981.57
2022-12-17T01:56:05.358Z,981.69
2022-12-17T02:03:44.735Z,981.74
2022-12-17T02:11:44.035Z,981.76
2022-12-17T02:20:12.398Z,981.84
2022-12-17T02:28:12.004Z,981.78
2022-12-17T02:36:00.037Z,981.72
2022-12-17T02:43:35.995Z,981.73
2022-12-17T02:51:09.424Z,981.68
2022-12-17T02:58:46.266Z,981.82
2022-12-17T03:06:11.788Z,981.87
2022-12-17T03:13:42.434Z,982
2022-12-17T03:21:26.701Z,982
2022-12-17T03:29:11.205Z,982.05
2022-12-17T03:36:41.425Z,982.13
2022-12-17T03:44:01.397Z,982.13
2022-12-17T03:51:36.969Z,982.16
2022-12-17T03:59:00.138Z,982.22
2022-12-17T04:06:22.678Z,982.23
2022-12-17T04:12:59.537Z,982.29
2022-12-17T04:19:32.696Z,982.28
2022-12-17T04:25:58.125Z,982.39
2022-12-17T04:32:26.989Z,982.5
2022-12-17T04:38:59.753Z,982.56
2022-12-17T04:45:27.486Z,982.63
2022-12-17T04:51:53.423Z,982.66
2022-12-17T04:58:18.510Z,982.7
2022-12-17T05:04:42.695Z,982.78
2022-12-17T05:11:11.496Z,982.76
2022-12-17T05:17:40.743Z,982.81
2022-12-17T05:24:09.436Z,982.81
2022-12-17T05:30:41.433Z,982.84
2022-12-17T05:37:07.719Z,982.86
2022-12-17T05:43:38.506Z,983
2022-12-17T05:50:05.850Z,983.14
2022-12-17T05:56:53.048Z,983.26
2022-12-17T06:03:18.018Z,983.24
2022-12-17T06:09:47.938Z,983.28
2022-12-17T06:16:15.043Z,983.41
2022-12-17T06:22:38.542Z,983.47
2022-12-17T06:29:13.855Z,983.49
2022-12-17T06:35:37.480Z,983.5
2022-12-17T06:42:05.619Z,983.53
2022-12-17T06:48:38.793Z,983.63
2022-12-17T06:55:03.596Z,983.64
2022-12-17T07:01:28.860Z,983.76
2022-12-17T07:08:00.998Z,983.87
2022-12-17T07:14:23.551Z,983.93
2022-12-17T07:20:47.794Z,983.98
2022-12-17T07:27:15.527Z,984.15
2022-12-17T07:33:46.627Z,984.16
2022-12-17T07:40:08.366Z,984.23
2022-12-17T07:46:36.060Z,984.34
2022-12-17T07:53:00.054Z,984.44
2022-12-17T07:59:25.550Z,984.35
2022-12-17T08:05:53.905Z,984.4
2022-12-17T08:12:20.394Z,984.47
2022-12-17T08:18:51.985Z,984.49
2022-12-17T08:25:14.642Z,984.49
2022-12-17T08:31:44.439Z,984.52
2022-12-17T08:38:13.560Z,984.69
2022-12-17T08:44:35.486Z,984.74
2022-12-17T08:51:02.417Z,984.78
2022-12-17T08:57:33.208Z,984.92
2022-12-17T09:03:57.891Z,984.96
2022-12-17T09:10:29.553Z,984.94
2022-12-17T09:16:55.623Z,985.07
2022-12-17T09:23:24.974Z,985.17
2022-12-17T09:29:53.546Z,985.16
2022-12-17T09:36:23.539Z,985.13
2022-12-17T09:43:02.584Z,985.2
2022-12-17T09:50:05.978Z,985.24
2022-12-17T09:56:58.022Z,985.25
2022-12-17T10:03:38.453Z,985.24
2022-12-17T10:10:29.161Z,985.22
2022-12-17T10:17:13.556Z,985.21
2022-12-17T10:24:04.514Z,985.18
2022-12-17T10:30:54.262Z,985.29
2022-12-17T10:37:36.413Z,985.22
2022-12-17T10:44:16.646Z,985.15
2022-12-17T10:51:10.029Z,985.22
2022-12-17T10:58:13.614Z,985.29
2022-12-17T11:05:03.535Z,985.38
2022-12-17T11:12:07.818Z,985.42
2022-12-17T11:18:57.582Z,985.45
2022-12-17T11:26:03.715Z,985.46
2022-12-17T11:33:00.987Z,985.45
2022-12-17T11:40:14.763Z,985.35
2022-12-17T11:47:32.908Z,985.24
2022-12-17T11:54:43.771Z,985.26
2022-12-17T12:01:54.139Z,985.21
2022-12-17T12:09:04.683Z,985.15
2022-12-17T12:16:03.844Z,985.1
2022-12-17T12:23:12.605Z,985.06
2022-12-17T12:30:17.620Z,985.05
2022-12-17T12:37:13.621Z,984.95
2022-12-17T12:44:19.452Z,984.91
2022-12-17T12:51:34.980Z,984.91
2022-12-17T12:58:22.082Z,984.88
2022-12-17T13:05:14.426Z,984.84
2022-12-17T13:12:25.618Z,984.81
2022-12-17T13:19:38.346Z,984.9
2022-12-17T13:26:23.593Z,984.78
2022-12-17T13:33:27.991Z,984.84
2022-12-17T13:40:07.917Z,984.77
2022-12-17T13:47:09.654Z,984.81
2022-12-17T13:53:58.360Z,984.93
2022-12-17T14:00:37.666Z,984.94
2022-12-17T14:07:16.060Z,984.9
2022-12-17T14:13:51.614Z,984.97
2022-12-17T14:20:34.088Z,984.95
2022-12-17T14:27:08.890Z,984.95
2022-12-17T14:34:12.378Z,984.99
2022-12-17T14:40:52.661Z,985.07
2022-12-17T14:47:47.984Z,985.12
2022-12-17T14:54:35.955Z,985.25
2022-12-17T15:01:23.923Z,985.32
2022-12-17T15:08:03.710Z,985.41
2022-12-17T15:14:39.673Z,985.43
2022-12-17T15:21:02.228Z,985.51
2022-12-17T15:27:36.697Z,985.47
2022-12-17T15:34:09.159Z,985.53
2022-12-17T15:40:42.543Z,985.5
2022-12-17T15:47:22.070Z,985.5
2022-12-17T15:53:49.252Z,985.48
2022-12-17T16:00:16.483Z,985.5
2022-12-17T16:06:42.106Z,985.51
2022-12-17T16:13:11.220Z,985.63
2022-12-17T16:19:53.730Z,985.71
2022-12-17T16:26:18.736Z,985.76
2022-12-17T16:32:45.303Z,985.8
2022-12-17T16:39:19.149Z,985.8
2022-12-17T16:45:48.662Z,985.84
2022-12-17T16:52:30.408Z,985.92
2022-12-17T16:58:55.803Z,985.96
2022-12-17T17:05:24.815Z,985.99
2022-12-17T17:12:01.759Z,986.01
2022-12-17T17:18:36.903Z,986.1
2022-12-17T17:25:08.298Z,986.11
2022-12-17T17:38:19.848Z,986.17
2022-12-17T17:44:50.735Z,986.21
2022-12-17T17:51:39.219Z,986.21
2022-12-17T17:58:06.155Z,986.32
2022-12-17T18:04:44.188Z,986.32
2022-12-17T18:11:11.788Z,986.33
2022-12-17T18:17:34.818Z,986.37
2022-12-17T18:24:06.488Z,986.42
2022-12-17T18:30:45.132Z,986.48
2022-12-17T18:37:10.988Z,986.48
2022-12-17T18:43:42.322Z,986.55
2022-12-17T18:50:15.737Z,986.59
2022-12-17T18:57:02.198Z,986.55
2022-12-17T19:03:30.860Z,986.67
2022-12-17T19:10:01.022Z,986.7
2022-12-17T19:16:25.888Z,986.73
2022-12-17T19:22:53.263Z,986.66
2022-12-17T19:29:24.732Z,986.67
2022-12-17T19:35:53.852Z,986.73
2022-12-17T19:42:40.440Z,986.77
2022-12-17T19:49:14.235Z,986.74
2022-12-17T19:55:47.343Z,986.9
2022-12-17T20:02:23.536Z,987.01
2022-12-17T20:08:56.249Z,987
2022-12-17T20:15:32.311Z,987.01
2022-12-17T20:22:05.783Z,987.01
2022-12-17T20:28:35.769Z,987.01
2022-12-17T20:35:05.137Z,986.94
2022-12-17T20:41:32.263Z,987.02
2022-12-17T20:48:08.226Z,986.97
2022-12-17T20:54:47.175Z,987
2022-12-17T21:01:15.177Z,986.99
2022-12-17T21:07:47.115Z,987.03
2022-12-17T21:14:24.135Z,986.98
2022-12-17T21:20:58.908Z,987.04
2022-12-17T21:27:26.874Z,987.15
2022-12-17T21:33:54.953Z,987.19
2022-12-17T21:40:25.366Z,987.23
2022-12-17T21:46:57.011Z,987.26
2022-12-17T21:53:28.228Z,987.25
2022-12-17T22:00:06.859Z,987.21
2022-12-17T22:06:46.910Z,987.34
2022-12-17T22:13:16.398Z,987.43
2022-12-17T22:19:49.843Z,987.42
2022-12-17T22:26:21.847Z,987.42
2022-12-17T22:32:49.487Z,987.4
2022-12-17T22:41:04.171Z,987.39
2022-12-17T22:46:01.833Z,987.35
2022-12-17T22:52:28.499Z,987.5
2022-12-17T22:58:54.264Z,987.45
2022-12-17T23:05:31.627Z,987.52
2022-12-17T23:12:03.644Z,987.47
2022-12-17T23:18:47.285Z,987.56
2022-12-17T23:25:14.316Z,987.53
2022-12-17T23:31:53.915Z,987.45
2022-12-17T23:38:19.287Z,987.44
2022-12-17T23:44:43.015Z,987.33
2022-12-17T23:51:12.119Z,987.29
2022-12-17T23:57:35.878Z,987.28
